createdAt,value
2018-08-17T00:00:56.761Z,0.00
2018-08-17T00:01:56.694Z,0.00
2018-08-17T00:02:56.730Z,0.00
2018-08-17T00:03:57.578Z,0.00
2018-08-17T00:04:56.621Z,0.00
2018-08-17T00:05:59.575Z,0.00
2018-08-17T00:06:56.629Z,0.00
2018-08-17T00:07:56.601Z,0.00
2018-08-17T00:08:57.081Z,0.00
2018-08-17T00:09:57.076Z,0.00
2018-08-17T00:10:57.079Z,0.00
2018-08-17T00:11:56.460Z,0.00
2018-08-17T00:12:56.635Z,0.00
2018-08-17T00:13:57.081Z,0.00
2018-08-17T00:14:57.080Z,0.00
2018-08-17T00:15:56.386Z,0.00
2018-08-17T00:16:56.344Z,0.00
2018-08-17T00:17:56.364Z,0.00
2018-08-17T00:18:56.300Z,0.00
2018-08-17T00:19:56.281Z,0.00
2018-08-17T00:20:57.080Z,0.00
2018-08-17T00:21:57.105Z,0.00
2018-08-17T00:22:56.646Z,0.00
2018-08-17T00:23:56.226Z,0.00
2018-08-17T00:24:56.159Z,0.00
2018-08-17T00:25:57.081Z,0.00
2018-08-17T00:26:57.088Z,0.00
2018-08-17T00:27:56.086Z,0.00
2018-08-17T00:28:56.139Z,0.00
2018-08-17T00:29:56.042Z,0.00
2018-08-17T00:30:56.581Z,0.00
2018-08-17T00:31:55.995Z,0.00
2018-08-17T00:32:56.041Z,0.00
2018-08-17T00:33:55.992Z,0.00
2018-08-17T00:34:56.594Z,0.00
2018-08-17T00:35:55.901Z,0.00
2018-08-17T00:36:55.878Z,0.00
2018-08-17T00:37:56.589Z,0.00
2018-08-17T00:38:55.875Z,0.00
2018-08-17T00:39:55.808Z,0.00
2018-08-17T00:40:56.144Z,0.00
2018-08-17T00:41:55.762Z,0.00
2018-08-17T00:42:56.585Z,0.00
2018-08-17T00:43:56.590Z,0.00
2018-08-17T00:44:55.693Z,0.00
2018-08-17T00:45:55.722Z,0.00
2018-08-17T00:46:55.641Z,0.00
2018-08-17T00:47:55.669Z,0.00
2018-08-17T00:48:56.590Z,0.00
2018-08-17T00:49:56.087Z,0.00
2018-08-17T00:50:55.602Z,0.00
2018-08-17T00:51:55.523Z,0.00
2018-08-17T00:52:55.506Z,0.00
2018-08-17T00:53:56.089Z,0.00
2018-08-17T00:54:55.459Z,0.00
2018-08-17T00:55:55.475Z,0.00
2018-08-17T00:56:56.087Z,0.00
2018-08-17T00:57:55.385Z,0.00
2018-08-17T00:58:55.361Z,0.00
2018-08-17T00:59:56.104Z,0.00
2018-08-17T01:00:55.646Z,0.00
2018-08-17T01:01:56.088Z,0.00
2018-08-17T01:02:55.278Z,0.00
2018-08-17T01:03:55.244Z,0.00
2018-08-17T01:04:56.091Z,0.00
2018-08-17T01:05:55.647Z,0.00
2018-08-17T01:06:55.174Z,0.00
2018-08-17T01:07:55.648Z,0.00
2018-08-17T01:08:55.130Z,0.00
2018-08-17T01:09:55.113Z,0.00
2018-08-17T01:10:55.253Z,0.00
2018-08-17T01:11:55.070Z,0.00
2018-08-17T01:12:55.593Z,0.00
2018-08-17T01:13:55.593Z,0.00
2018-08-17T01:14:54.984Z,0.00
2018-08-17T01:15:55.016Z,0.00
2018-08-17T01:16:55.151Z,0.00
2018-08-17T01:17:54.913Z,0.00
2018-08-17T01:18:54.893Z,0.00
2018-08-17T01:19:54.910Z,0.00
2018-08-17T01:20:54.844Z,0.00
2018-08-17T01:21:55.126Z,0.00
2018-08-17T01:22:54.795Z,0.00
2018-08-17T01:23:54.810Z,0.00
2018-08-17T01:24:54.759Z,0.00
2018-08-17T01:25:55.595Z,0.00
2018-08-17T01:26:55.169Z,0.00
2018-08-17T01:27:55.604Z,0.00
2018-08-17T01:28:55.596Z,0.00
2018-08-17T01:29:55.597Z,0.00
2018-08-17T01:30:54.606Z,0.00
2018-08-17T01:31:54.651Z,0.00
2018-08-17T01:32:54.604Z,0.00
2018-08-17T01:33:54.580Z,0.00
2018-08-17T01:34:55.099Z,0.00
2018-08-17T01:35:54.488Z,0.00
2018-08-17T01:36:55.100Z,0.00
2018-08-17T01:37:54.439Z,0.00
2018-08-17T01:38:54.653Z,0.00
2018-08-17T01:39:55.108Z,0.00
2018-08-17T01:40:54.368Z,0.00
2018-08-17T01:41:55.108Z,0.00
2018-08-17T01:42:54.323Z,0.00
2018-08-17T01:43:54.342Z,0.00
2018-08-17T01:44:55.099Z,0.00
2018-08-17T01:45:55.105Z,0.00
2018-08-17T01:46:54.271Z,0.00
2018-08-17T01:47:54.204Z,0.00
2018-08-17T01:48:54.216Z,0.00
2018-08-17T01:49:55.098Z,0.00
2018-08-17T01:50:54.133Z,0.00
2018-08-17T01:51:54.653Z,0.00
2018-08-17T01:52:54.085Z,0.00
2018-08-17T01:53:54.065Z,0.00
2018-08-17T01:54:54.081Z,0.00
2018-08-17T01:55:54.603Z,0.00
2018-08-17T01:56:53.999Z,0.00
2018-08-17T01:57:54.616Z,0.00
2018-08-17T01:58:53.947Z,0.00
2018-08-17T01:59:53.988Z,0.00
2018-08-17T02:00:53.896Z,0.00
2018-08-17T02:01:53.869Z,0.00
2018-08-17T02:02:53.846Z,0.00
2018-08-17T02:03:54.158Z,0.00
2018-08-17T02:04:53.801Z,0.00
2018-08-17T02:05:54.161Z,0.00
2018-08-17T02:06:54.606Z,0.00
2018-08-17T02:07:53.726Z,0.00
2018-08-17T02:08:53.704Z,0.00
2018-08-17T02:09:54.171Z,0.00
2018-08-17T02:10:54.605Z,0.00
2018-08-17T02:11:53.631Z,0.00
2018-08-17T02:12:53.607Z,0.00
2018-08-17T02:13:53.660Z,0.00
2018-08-17T02:14:54.110Z,0.00
2018-08-17T02:15:53.534Z,0.00
2018-08-17T02:16:54.108Z,0.00
2018-08-17T02:17:53.485Z,0.00
2018-08-17T02:18:53.664Z,0.00
2018-08-17T02:19:54.108Z,0.00
2018-08-17T02:20:53.459Z,0.00
2018-08-17T02:21:53.389Z,0.00
2018-08-17T02:22:53.676Z,0.00
2018-08-17T02:23:54.109Z,0.00
2018-08-17T02:24:53.317Z,0.00
2018-08-17T02:25:54.109Z,0.00
2018-08-17T02:26:53.269Z,0.00
2018-08-17T02:27:53.290Z,0.00
2018-08-17T02:28:54.111Z,0.00
2018-08-17T02:29:53.664Z,0.00
2018-08-17T02:30:54.109Z,0.00
2018-08-17T02:31:53.659Z,0.00
2018-08-17T02:32:53.132Z,0.00
2018-08-17T02:33:53.614Z,0.00
2018-08-17T02:34:53.610Z,0.00
2018-08-17T02:35:53.663Z,0.00
2018-08-17T02:36:53.028Z,0.00
2018-08-17T02:37:53.616Z,0.00
2018-08-17T02:38:52.979Z,0.00
2018-08-17T02:39:52.963Z,0.00
2018-08-17T02:40:52.984Z,0.00
2018-08-17T02:41:52.908Z,0.00
2018-08-17T02:42:53.173Z,0.00
2018-08-17T02:43:52.872Z,0.00
2018-08-17T02:44:53.627Z,0.00
2018-08-17T02:45:52.860Z,0.00
2018-08-17T02:46:52.789Z,0.00
2018-08-17T02:47:52.764Z,0.00
2018-08-17T02:48:52.758Z,0.00
2018-08-17T02:49:53.616Z,0.00
2018-08-17T02:50:52.735Z,0.00
2018-08-17T02:51:52.668Z,0.00
2018-08-17T02:52:52.642Z,0.00
2018-08-17T02:53:52.677Z,0.00
2018-08-17T02:54:52.596Z,0.00
2018-08-17T02:55:52.587Z,0.00
2018-08-17T02:56:53.118Z,0.00
2018-08-17T02:57:52.523Z,0.00
2018-08-17T02:58:52.670Z,0.00
2018-08-17T02:59:52.482Z,0.00
2018-08-17T03:00:52.458Z,0.00
2018-08-17T03:01:52.424Z,0.00
2018-08-17T03:02:52.401Z,0.00
2018-08-17T03:03:52.669Z,0.00
2018-08-17T03:04:53.121Z,0.00
2018-08-17T03:05:52.346Z,0.00
2018-08-17T03:06:52.360Z,0.00
2018-08-17T03:07:53.121Z,0.00
2018-08-17T03:08:53.126Z,0.00
2018-08-17T03:09:52.286Z,0.00
2018-08-17T03:10:53.119Z,0.00
2018-08-17T03:11:52.242Z,0.00
2018-08-17T03:12:52.164Z,0.00
2018-08-17T03:13:53.121Z,0.00
2018-08-17T03:14:52.110Z,0.00
2018-08-17T03:15:52.623Z,4.00
2018-08-17T03:16:52.103Z,4.00
2018-08-17T03:17:52.036Z,4.00
2018-08-17T03:18:52.009Z,0.00
2018-08-17T03:19:52.672Z,4.00
2018-08-17T03:20:52.174Z,4.00
2018-08-17T03:21:51.937Z,4.00
2018-08-17T03:22:52.180Z,4.00
2018-08-17T03:23:52.623Z,8.00
2018-08-17T03:24:52.630Z,4.00
2018-08-17T03:25:52.633Z,8.00
2018-08-17T03:26:51.815Z,8.00
2018-08-17T03:27:52.155Z,12.00
2018-08-17T03:28:52.623Z,12.00
2018-08-17T03:29:52.177Z,16.00
2018-08-17T03:30:51.720Z,20.00
2018-08-17T03:31:51.692Z,20.00
2018-08-17T03:32:51.670Z,24.00
2018-08-17T03:33:52.625Z,24.00
2018-08-17T03:34:51.665Z,32.00
2018-08-17T03:35:51.595Z,36.00
2018-08-17T03:36:51.590Z,40.00
2018-08-17T03:37:51.558Z,48.00
2018-08-17T03:38:52.124Z,52.00
2018-08-17T03:39:51.699Z,64.00
2018-08-17T03:40:51.471Z,72.00
2018-08-17T03:41:52.124Z,76.00
2018-08-17T03:42:52.125Z,88.00
2018-08-17T03:43:51.685Z,96.00
2018-08-17T03:44:52.128Z,108.00
2018-08-17T03:45:51.391Z,120.00
2018-08-17T03:46:51.322Z,136.00
2018-08-17T03:47:51.346Z,148.00
2018-08-17T03:48:52.125Z,168.00
2018-08-17T03:49:52.132Z,188.00
2018-08-17T03:50:52.130Z,204.00
2018-08-17T03:51:51.201Z,228.00
2018-08-17T03:52:51.227Z,252.00
2018-08-17T03:53:52.131Z,280.00
2018-08-17T03:54:51.128Z,308.00
2018-08-17T03:55:51.184Z,336.00
2018-08-17T03:56:51.080Z,372.00
2018-08-17T03:57:51.051Z,404.00
2018-08-17T03:58:51.033Z,436.00
2018-08-17T03:59:51.639Z,468.00
2018-08-17T04:00:51.186Z,504.00
2018-08-17T04:01:51.008Z,544.00
2018-08-17T04:02:50.931Z,588.00
2018-08-17T04:03:51.640Z,636.00
2018-08-17T04:04:50.885Z,680.00
2018-08-17T04:05:50.858Z,728.00
2018-08-17T04:06:50.887Z,776.00
2018-08-17T04:07:51.642Z,828.00
2018-08-17T04:08:50.781Z,884.00
2018-08-17T04:09:51.638Z,940.00
2018-08-17T04:10:51.632Z,1004.00
2018-08-17T04:11:50.752Z,1068.00
2018-08-17T04:12:51.190Z,1132.00
2018-08-17T04:13:51.632Z,1204.00
2018-08-17T04:14:50.633Z,1268.00
2018-08-17T04:15:51.132Z,1336.00
2018-08-17T04:16:50.629Z,1404.00
2018-08-17T04:17:50.598Z,1468.00
2018-08-17T04:18:51.137Z,1536.00
2018-08-17T04:19:51.175Z,1600.00
2018-08-17T04:20:50.689Z,1668.00
2018-08-17T04:21:50.465Z,1732.00
2018-08-17T04:22:51.135Z,1800.00
2018-08-17T04:23:51.185Z,1864.00
2018-08-17T04:24:51.140Z,1928.00
2018-08-17T04:25:50.690Z,1992.00
2018-08-17T04:26:50.358Z,2056.00
2018-08-17T04:27:52.193Z,2124.00
2018-08-17T04:28:50.292Z,2184.00
2018-08-17T04:29:51.174Z,2236.00
2018-08-17T04:30:50.286Z,2300.00
2018-08-17T04:31:50.220Z,2368.00
2018-08-17T04:32:50.239Z,2436.00
2018-08-17T04:33:51.137Z,2500.00
2018-08-17T04:34:51.142Z,2572.00
2018-08-17T04:35:50.124Z,2640.00
2018-08-17T04:36:50.197Z,2696.00
2018-08-17T04:37:50.639Z,2768.00
2018-08-17T04:38:50.641Z,2844.00
2018-08-17T04:39:50.642Z,2920.00
2018-08-17T04:40:50.639Z,2980.00
2018-08-17T04:41:50.191Z,3036.00
2018-08-17T04:42:49.995Z,3224.00
2018-08-17T04:43:50.020Z,3496.00
2018-08-17T04:44:50.640Z,3352.00
2018-08-17T04:45:50.642Z,3196.00
2018-08-17T04:46:49.860Z,3200.00
2018-08-17T04:47:49.874Z,3216.00
2018-08-17T04:48:49.812Z,3236.00
2018-08-17T04:49:50.665Z,3260.00
2018-08-17T04:50:49.759Z,3284.00
2018-08-17T04:51:49.753Z,3292.00
2018-08-17T04:52:49.759Z,3312.00
2018-08-17T04:53:49.688Z,3344.00
2018-08-17T04:54:50.643Z,3372.00
2018-08-17T04:55:49.637Z,3404.00
2018-08-17T04:56:50.144Z,3456.00
2018-08-17T04:57:49.632Z,3548.00
2018-08-17T04:58:50.176Z,3608.00
2018-08-17T04:59:49.699Z,3700.00
2018-08-17T05:00:49.518Z,3796.00
2018-08-17T05:01:49.495Z,3912.00
2018-08-17T05:02:49.470Z,4048.00
2018-08-17T05:03:49.500Z,4260.00
2018-08-17T05:04:49.428Z,4308.00
2018-08-17T05:05:49.403Z,4236.00
2018-08-17T05:06:49.385Z,4256.00
2018-08-17T05:07:49.353Z,4268.00
2018-08-17T05:08:49.427Z,4300.00
2018-08-17T05:09:49.306Z,4336.00
2018-08-17T05:10:49.286Z,4372.00
2018-08-17T05:11:50.149Z,4420.00
2018-08-17T05:12:49.235Z,4484.00
2018-08-17T05:13:49.269Z,4528.00
2018-08-17T05:14:49.232Z,4560.00
2018-08-17T05:15:49.166Z,4568.00
2018-08-17T05:16:49.150Z,4608.00
2018-08-17T05:17:49.115Z,4628.00
2018-08-17T05:18:49.090Z,4652.00
2018-08-17T05:19:49.112Z,4676.00
2018-08-17T05:20:49.045Z,4716.00
2018-08-17T05:21:49.020Z,4768.00
2018-08-17T05:22:49.002Z,4808.00
2018-08-17T05:23:48.976Z,4872.00
2018-08-17T05:24:48.995Z,4900.00
2018-08-17T05:25:48.939Z,4948.00
2018-08-17T05:26:48.977Z,4988.00
2018-08-17T05:27:48.908Z,5004.00
2018-08-17T05:28:48.859Z,5008.00
2018-08-17T05:29:48.883Z,4996.00
2018-08-17T05:30:48.809Z,4984.00
2018-08-17T05:31:48.834Z,4980.00
2018-08-17T05:32:48.770Z,4972.00
2018-08-17T05:33:48.748Z,4964.00
2018-08-17T05:34:48.764Z,4952.00
2018-08-17T05:35:48.699Z,4936.00
2018-08-17T05:36:48.723Z,4912.00
2018-08-17T05:37:48.647Z,4892.00
2018-08-17T05:38:48.627Z,4888.00
2018-08-17T05:39:48.602Z,4896.00
2018-08-17T05:40:48.581Z,4896.00
2018-08-17T05:41:48.610Z,4892.00
2018-08-17T05:42:48.537Z,4896.00
2018-08-17T05:43:48.514Z,4884.00
2018-08-17T05:44:48.538Z,4876.00
2018-08-17T05:45:48.495Z,4936.00
2018-08-17T05:46:48.459Z,5004.00
2018-08-17T05:47:48.426Z,5028.00
2018-08-17T05:48:48.396Z,5048.00
2018-08-17T05:49:48.416Z,5044.00
2018-08-17T05:50:48.351Z,5004.00
2018-08-17T05:51:48.326Z,4972.00
2018-08-17T05:52:48.357Z,5032.00
2018-08-17T05:53:48.285Z,5100.00
2018-08-17T05:54:48.264Z,5124.00
2018-08-17T05:55:48.239Z,5140.00
2018-08-17T05:56:48.376Z,5152.00
2018-08-17T05:57:48.193Z,5184.00
2018-08-17T05:58:48.203Z,5196.00
2018-08-17T05:59:48.170Z,5220.00
2018-08-17T06:00:48.121Z,5228.00
2018-08-17T06:01:48.142Z,5236.00
2018-08-17T06:02:48.141Z,5252.00
2018-08-17T06:03:48.097Z,5276.00
2018-08-17T06:04:48.033Z,5312.00
2018-08-17T06:05:48.010Z,5344.00
2018-08-17T06:06:47.986Z,5380.00
2018-08-17T06:07:48.215Z,5396.00
2018-08-17T06:08:47.947Z,5424.00
2018-08-17T06:09:48.665Z,5464.00
2018-08-17T06:10:48.009Z,5496.00
2018-08-17T06:11:48.721Z,5532.00
2018-08-17T06:12:47.852Z,5560.00
2018-08-17T06:13:47.830Z,5588.00
2018-08-17T06:14:47.807Z,5616.00
2018-08-17T06:15:47.822Z,5636.00
2018-08-17T06:16:47.765Z,5652.00
2018-08-17T06:17:47.744Z,5652.00
2018-08-17T06:18:47.755Z,5660.00
2018-08-17T06:19:47.696Z,5664.00
2018-08-17T06:20:47.674Z,5672.00
2018-08-17T06:21:47.700Z,5688.00
2018-08-17T06:22:47.631Z,5708.00
2018-08-17T06:23:47.655Z,5728.00
2018-08-17T06:24:47.584Z,5736.00
2018-08-17T06:25:47.561Z,5748.00
2018-08-17T06:26:47.539Z,5764.00
2018-08-17T06:27:47.518Z,5808.00
2018-08-17T06:28:47.539Z,5852.00
2018-08-17T06:29:47.482Z,5836.00
2018-08-17T06:30:47.453Z,5920.00
2018-08-17T06:31:47.489Z,6024.00
2018-08-17T06:32:47.406Z,6088.00
2018-08-17T06:33:47.425Z,6124.00
2018-08-17T06:34:47.363Z,6164.00
2018-08-17T06:35:47.339Z,6196.00
2018-08-17T06:36:47.324Z,6224.00
2018-08-17T06:37:47.299Z,6240.00
2018-08-17T06:38:47.313Z,6260.00
2018-08-17T06:39:47.255Z,6276.00
2018-08-17T06:40:47.232Z,6288.00
2018-08-17T06:41:47.230Z,6292.00
2018-08-17T06:42:47.192Z,6292.00
2018-08-17T06:43:47.170Z,6288.00
2018-08-17T06:44:47.145Z,6288.00
2018-08-17T06:45:47.123Z,6296.00
2018-08-17T06:46:47.144Z,6292.00
2018-08-17T06:47:47.081Z,6296.00
2018-08-17T06:48:47.111Z,6284.00
2018-08-17T06:49:47.038Z,6328.00
2018-08-17T06:50:47.109Z,6336.00
2018-08-17T06:51:47.001Z,6328.00
2018-08-17T06:52:46.974Z,6296.00
2018-08-17T06:53:47.009Z,6280.00
2018-08-17T06:54:46.930Z,6312.00
2018-08-17T06:55:46.908Z,6328.00
2018-08-17T06:56:46.886Z,6312.00
2018-08-17T06:57:46.863Z,6292.00
2018-08-17T06:58:46.889Z,6260.00
2018-08-17T06:59:46.828Z,6240.00
2018-08-17T07:00:46.799Z,6208.00
2018-08-17T07:01:47.675Z,6180.00
2018-08-17T07:02:46.762Z,6168.00
2018-08-17T07:03:46.780Z,6100.00
2018-08-17T07:04:46.720Z,6184.00
2018-08-17T07:05:46.695Z,6260.00
2018-08-17T07:06:46.677Z,6296.00
2018-08-17T07:07:46.653Z,6300.00
2018-08-17T07:08:46.701Z,6304.00
2018-08-17T07:09:46.612Z,6292.00
2018-08-17T07:10:46.592Z,6288.00
2018-08-17T07:11:46.575Z,6284.00
2018-08-17T07:12:46.548Z,6284.00
2018-08-17T07:13:46.572Z,6292.00
2018-08-17T07:14:46.562Z,6300.00
2018-08-17T07:15:46.495Z,6316.00
2018-08-17T07:16:46.499Z,6324.00
2018-08-17T07:17:46.448Z,6332.00
2018-08-17T07:18:46.427Z,6340.00
2018-08-17T07:19:46.426Z,6340.00
2018-08-17T07:20:46.381Z,6344.00
2018-08-17T07:21:46.358Z,6352.00
2018-08-17T07:22:46.365Z,6356.00
2018-08-17T07:23:46.318Z,6360.00
2018-08-17T07:24:46.306Z,6360.00
2018-08-17T07:25:46.278Z,6364.00
2018-08-17T07:26:46.267Z,6352.00
2018-08-17T07:27:46.302Z,6344.00
2018-08-17T07:28:46.254Z,6344.00
2018-08-17T07:29:46.201Z,6344.00
2018-08-17T07:30:46.180Z,6348.00
2018-08-17T07:31:46.156Z,6360.00
2018-08-17T07:32:46.138Z,6372.00
2018-08-17T07:33:46.165Z,6380.00
2018-08-17T07:34:46.092Z,6392.00
2018-08-17T07:35:46.150Z,6412.00
2018-08-17T07:36:46.053Z,6416.00
2018-08-17T07:37:46.033Z,6424.00
2018-08-17T07:38:46.688Z,6420.00
2018-08-17T07:39:46.041Z,6412.00
2018-08-17T07:40:45.970Z,6404.00
2018-08-17T07:41:45.972Z,6404.00
2018-08-17T07:42:45.930Z,6412.00
2018-08-17T07:43:45.957Z,6416.00
2018-08-17T07:44:45.888Z,6420.00
2018-08-17T07:45:45.870Z,6424.00
2018-08-17T07:46:45.921Z,6436.00
2018-08-17T07:47:45.902Z,6456.00
2018-08-17T07:48:45.825Z,6484.00
2018-08-17T07:49:45.786Z,6508.00
2018-08-17T07:50:45.775Z,6536.00
2018-08-17T07:51:45.790Z,6564.00
2018-08-17T07:52:45.773Z,6588.00
2018-08-17T07:53:45.708Z,6612.00
2018-08-17T07:54:45.686Z,6632.00
2018-08-17T07:55:45.677Z,6632.00
2018-08-17T07:56:45.654Z,6644.00
2018-08-17T07:57:45.674Z,6656.00
2018-08-17T07:58:45.611Z,6660.00
2018-08-17T07:59:45.587Z,6656.00
2018-08-17T08:00:45.568Z,6640.00
2018-08-17T08:01:45.593Z,6620.00
2018-08-17T08:02:45.529Z,6584.00
2018-08-17T08:03:45.510Z,6544.00
2018-08-17T08:04:45.532Z,6508.00
2018-08-17T08:05:45.469Z,6460.00
2018-08-17T08:06:45.460Z,6416.00
2018-08-17T08:07:45.462Z,6364.00
2018-08-17T08:08:45.411Z,6356.00
2018-08-17T08:09:45.437Z,6308.00
2018-08-17T08:10:45.419Z,6256.00
2018-08-17T08:11:45.360Z,6232.00
2018-08-17T08:12:45.333Z,6204.00
2018-08-17T08:13:45.387Z,6184.00
2018-08-17T08:14:45.346Z,6164.00
2018-08-17T08:15:45.275Z,6168.00
2018-08-17T08:16:45.323Z,6204.00
2018-08-17T08:17:45.238Z,6248.00
2018-08-17T08:18:45.212Z,6280.00
2018-08-17T08:19:45.193Z,6304.00
2018-08-17T08:20:45.173Z,6316.00
2018-08-17T08:21:45.198Z,6308.00
2018-08-17T08:22:45.136Z,6332.00
2018-08-17T08:23:45.116Z,6368.00
2018-08-17T08:24:45.099Z,6408.00
2018-08-17T08:25:45.130Z,6408.00
2018-08-17T08:26:45.060Z,6416.00
2018-08-17T08:27:45.041Z,6404.00
2018-08-17T08:28:45.016Z,6372.00
2018-08-17T08:29:45.005Z,6356.00
2018-08-17T08:30:45.017Z,6328.00
2018-08-17T08:31:44.958Z,6328.00
2018-08-17T08:32:44.984Z,6320.00
2018-08-17T08:33:44.918Z,6300.00
2018-08-17T08:34:44.956Z,6252.00
2018-08-17T08:35:44.910Z,6200.00
2018-08-17T08:36:44.866Z,6188.00
2018-08-17T08:37:44.841Z,6188.00
2018-08-17T08:38:44.839Z,6192.00
2018-08-17T08:39:44.898Z,6232.00
2018-08-17T08:40:44.784Z,6288.00
2018-08-17T08:41:44.764Z,6340.00
2018-08-17T08:42:44.751Z,6380.00
2018-08-17T08:43:44.779Z,6364.00
2018-08-17T08:44:44.704Z,6312.00
2018-08-17T08:45:44.769Z,6268.00
2018-08-17T08:46:44.672Z,6236.00
2018-08-17T08:47:44.648Z,6220.00
2018-08-17T08:48:44.630Z,6216.00
2018-08-17T08:49:44.662Z,6220.00
2018-08-17T08:50:44.641Z,6192.00
2018-08-17T08:51:44.574Z,6148.00
2018-08-17T08:52:44.552Z,6096.00
2018-08-17T08:53:44.570Z,6076.00
2018-08-17T08:54:44.560Z,6040.00
2018-08-17T08:55:44.496Z,6024.00
2018-08-17T08:56:44.520Z,6032.00
2018-08-17T08:57:44.460Z,6044.00
2018-08-17T08:58:44.483Z,6036.00
2018-08-17T08:59:44.422Z,6004.00
2018-08-17T09:00:44.406Z,5972.00
2018-08-17T09:01:44.424Z,5972.00
2018-08-17T09:02:44.366Z,5960.00
2018-08-17T09:03:44.387Z,5948.00
2018-08-17T09:04:44.324Z,5936.00
2018-08-17T09:05:44.303Z,5960.00
2018-08-17T09:06:44.325Z,6004.00
2018-08-17T09:07:44.271Z,6028.00
2018-08-17T09:08:44.247Z,6048.00
2018-08-17T09:09:44.227Z,6096.00
2018-08-17T09:10:44.219Z,6144.00
2018-08-17T09:11:44.237Z,6204.00
2018-08-17T09:12:44.170Z,6284.00
2018-08-17T09:13:44.248Z,6340.00
2018-08-17T09:14:44.174Z,6360.00
2018-08-17T09:15:44.164Z,6368.00
2018-08-17T09:16:44.142Z,6384.00
2018-08-17T09:17:44.078Z,6376.00
2018-08-17T09:18:44.061Z,6368.00
2018-08-17T09:19:44.084Z,6368.00
2018-08-17T09:20:44.078Z,6348.00
2018-08-17T09:21:44.003Z,6324.00
2018-08-17T09:22:44.141Z,6308.00
2018-08-17T09:23:43.980Z,6288.00
2018-08-17T09:24:43.949Z,6284.00
2018-08-17T09:25:43.929Z,6276.00
2018-08-17T09:26:43.911Z,6268.00
2018-08-17T09:27:43.935Z,6280.00
2018-08-17T09:28:43.875Z,6244.00
2018-08-17T09:29:43.855Z,6036.00
2018-08-17T09:30:43.888Z,6124.00
2018-08-17T09:31:43.843Z,6236.00
2018-08-17T09:32:44.722Z,6212.00
2018-08-17T09:33:43.823Z,6200.00
2018-08-17T09:34:43.806Z,6244.00
2018-08-17T09:35:43.745Z,6256.00
2018-08-17T09:36:43.774Z,6268.00
2018-08-17T09:37:43.703Z,6296.00
2018-08-17T09:38:43.686Z,6340.00
2018-08-17T09:39:43.715Z,6384.00
2018-08-17T09:40:43.701Z,6416.00
2018-08-17T09:41:43.661Z,6464.00
2018-08-17T09:42:43.618Z,6500.00
2018-08-17T09:43:43.611Z,6544.00
2018-08-17T09:44:43.618Z,6596.00
2018-08-17T09:45:43.564Z,6660.00
2018-08-17T09:46:43.593Z,6728.00
2018-08-17T09:47:43.528Z,6740.00
2018-08-17T09:48:43.504Z,6680.00
2018-08-17T09:49:43.484Z,6688.00
2018-08-17T09:50:43.467Z,6760.00
2018-08-17T09:51:43.785Z,6916.00
2018-08-17T09:52:43.448Z,7008.00
2018-08-17T09:53:43.474Z,7124.00
2018-08-17T09:54:43.393Z,7472.00
2018-08-17T09:55:43.381Z,7708.00
2018-08-17T09:56:43.407Z,7868.00
2018-08-17T09:57:43.359Z,7948.00
2018-08-17T09:58:43.321Z,8000.00
2018-08-17T09:59:43.342Z,7980.00
2018-08-17T10:00:43.285Z,7932.00
2018-08-17T10:01:43.269Z,7864.00
2018-08-17T10:02:43.293Z,7824.00
2018-08-17T10:03:44.196Z,7760.00
2018-08-17T10:04:43.211Z,7704.00
2018-08-17T10:05:43.199Z,7604.00
2018-08-17T10:06:43.181Z,7512.00
2018-08-17T10:07:43.206Z,7488.00
2018-08-17T10:08:43.141Z,7488.00
2018-08-17T10:09:43.165Z,7448.00
2018-08-17T10:10:43.732Z,7444.00
2018-08-17T10:11:43.090Z,7476.00
2018-08-17T10:12:43.072Z,7656.00
2018-08-17T10:13:43.135Z,7912.00
2018-08-17T10:14:43.092Z,8432.00
2018-08-17T10:15:43.095Z,9156.00
2018-08-17T10:16:43.051Z,9976.00
2018-08-17T10:17:42.981Z,10960.00
2018-08-17T10:18:42.976Z,12256.00
2018-08-17T10:19:42.954Z,13808.00
2018-08-17T10:20:43.076Z,15344.00
2018-08-17T10:21:43.248Z,16736.00
2018-08-17T10:22:42.945Z,17504.00
2018-08-17T10:23:43.747Z,17856.00
2018-08-17T10:24:42.916Z,17728.00
2018-08-17T10:25:42.849Z,16800.00
2018-08-17T10:26:42.829Z,15572.00
2018-08-17T10:27:42.861Z,14488.00
2018-08-17T10:28:42.795Z,13484.00
2018-08-17T10:29:42.782Z,12364.00
2018-08-17T10:30:42.814Z,11580.00
2018-08-17T10:31:42.769Z,10872.00
2018-08-17T10:32:42.727Z,10532.00
2018-08-17T10:33:42.714Z,10448.00
2018-08-17T10:34:42.696Z,10232.00
2018-08-17T10:35:42.739Z,10120.00
2018-08-17T10:36:42.679Z,10084.00
2018-08-17T10:37:42.650Z,10016.00
2018-08-17T10:38:42.640Z,10096.00
2018-08-17T10:39:42.619Z,10404.00
2018-08-17T10:40:42.663Z,10764.00
2018-08-17T10:41:42.586Z,10992.00
2018-08-17T10:42:42.573Z,11040.00
2018-08-17T10:43:42.607Z,10812.00
2018-08-17T10:44:42.582Z,10816.00
2018-08-17T10:45:42.542Z,10584.00
2018-08-17T10:46:42.506Z,10312.00
2018-08-17T10:47:42.489Z,9888.00
2018-08-17T10:48:42.561Z,9676.00
2018-08-17T10:49:42.466Z,9384.00
2018-08-17T10:50:42.447Z,9276.00
2018-08-17T10:51:42.429Z,9380.00
2018-08-17T10:52:42.410Z,9592.00
2018-08-17T10:53:42.452Z,9920.00
2018-08-17T10:54:42.416Z,10260.00
2018-08-17T10:55:42.387Z,10404.00
2018-08-17T10:56:42.393Z,10288.00
2018-08-17T10:57:42.332Z,10180.00
2018-08-17T10:58:42.314Z,10008.00
2018-08-17T10:59:42.347Z,9976.00
2018-08-17T11:00:42.292Z,10044.00
2018-08-17T11:01:43.249Z,10096.00
2018-08-17T11:02:42.262Z,9984.00
2018-08-17T11:03:42.237Z,9936.00
2018-08-17T11:04:42.272Z,9824.00
2018-08-17T11:05:42.262Z,9604.00
2018-08-17T11:06:42.750Z,9576.00
2018-08-17T11:07:42.213Z,9048.00
2018-08-17T11:08:42.164Z,8756.00
2018-08-17T11:09:42.143Z,8504.00
2018-08-17T11:10:42.162Z,8024.00
2018-08-17T11:11:42.112Z,7832.00
2018-08-17T11:12:42.342Z,7396.00
2018-08-17T11:13:43.161Z,7276.00
2018-08-17T11:14:42.088Z,7008.00
2018-08-17T11:15:42.044Z,7088.00
2018-08-17T11:16:42.045Z,6664.00
2018-08-17T11:17:42.053Z,6580.00
2018-08-17T11:18:41.995Z,6556.00
2018-08-17T11:19:41.983Z,6516.00
2018-08-17T11:20:42.351Z,6452.00
2018-08-17T11:21:42.001Z,6424.00
2018-08-17T11:22:41.932Z,6428.00
2018-08-17T11:23:41.915Z,6444.00
2018-08-17T11:24:41.912Z,6692.00
2018-08-17T11:25:41.883Z,6920.00
2018-08-17T11:26:41.903Z,6896.00
2018-08-17T11:27:41.894Z,7220.00
2018-08-17T11:28:41.837Z,7500.00
2018-08-17T11:29:41.821Z,7804.00
2018-08-17T11:30:41.802Z,8124.00
2018-08-17T11:31:41.785Z,8664.00
2018-08-17T11:32:41.820Z,9016.00
2018-08-17T11:33:41.754Z,9128.00
2018-08-17T11:34:41.737Z,9312.00
2018-08-17T11:35:41.765Z,9564.00
2018-08-17T11:36:41.703Z,9644.00
2018-08-17T11:37:41.732Z,9612.00
2018-08-17T11:38:41.669Z,9720.00
2018-08-17T11:39:41.652Z,9884.00
2018-08-17T11:40:41.680Z,10028.00
2018-08-17T11:41:41.621Z,9908.00
2018-08-17T11:42:41.603Z,9692.00
2018-08-17T11:43:41.586Z,9764.00
2018-08-17T11:44:42.262Z,10080.00
2018-08-17T11:45:41.598Z,10268.00
2018-08-17T11:46:41.540Z,10280.00
2018-08-17T11:47:41.523Z,10316.00
2018-08-17T11:48:41.510Z,10460.00
2018-08-17T11:49:41.489Z,10616.00
2018-08-17T11:50:41.520Z,10272.00
2018-08-17T11:51:41.459Z,10340.00
2018-08-17T11:52:42.269Z,10368.00
2018-08-17T11:53:41.478Z,10208.00
2018-08-17T11:54:41.408Z,10104.00
2018-08-17T11:55:41.460Z,9980.00
2018-08-17T11:56:41.375Z,9916.00
2018-08-17T11:57:41.359Z,9724.00
2018-08-17T11:58:41.342Z,9644.00
2018-08-17T11:59:41.327Z,9476.00
2018-08-17T12:00:41.366Z,9316.00
2018-08-17T12:01:41.294Z,8940.00
2018-08-17T12:02:41.279Z,8364.00
2018-08-17T12:03:42.178Z,7824.00
2018-08-17T12:04:41.263Z,7332.00
2018-08-17T12:05:41.277Z,6932.00
2018-08-17T12:06:41.212Z,6644.00
2018-08-17T12:07:41.197Z,6440.00
2018-08-17T12:08:41.282Z,6336.00
2018-08-17T12:09:41.165Z,6288.00
2018-08-17T12:10:41.152Z,6352.00
2018-08-17T12:11:41.178Z,6420.00
2018-08-17T12:12:41.123Z,6396.00
2018-08-17T12:13:41.113Z,6380.00
2018-08-17T12:14:41.085Z,6424.00
2018-08-17T12:15:41.074Z,6432.00
2018-08-17T12:16:41.101Z,6480.00
2018-08-17T12:17:41.037Z,6500.00
2018-08-17T12:18:41.070Z,6516.00
2018-08-17T12:19:41.007Z,6496.00
2018-08-17T12:20:40.990Z,6512.00
2018-08-17T12:21:40.974Z,6612.00
2018-08-17T12:22:41.777Z,6692.00
2018-08-17T12:23:41.003Z,6768.00
2018-08-17T12:24:41.017Z,6780.00